aviador You're here:

WSSS Decoded Metar

SINGAPORE in SINGAPORE
Report Time2018-06-23 12:00:00
UTC Time2018-06-23 12:13:08
Flight Rules vfr VFR
Wind320° at 03 kt
W.Decomp.*RWY 02: 1.5 kt HW 2.6 kt LCW
W.Rank320° ranks 18
Current wind is below 320° avg. (3.2)
Visibility9999 m
Phenomena:N/A
Clouds:Few 016 Hf
Broken 300 Hf
Expected CloudBase > 400 ft AGL from Temp-Dew spread
Ceiling30,000 ft
Temp26°C (ISA +11)
Dew Point25°C (94% RH)
QNH1010 hPa
Density Alt1,850 ft
Elevation52 ft
Report Wrong Elevation
Raw Report
WSSS 231200Z 32003KT 260V360 9999 FEW016 BKN300 26/25 Q1010
NOSIG=

Extra information for WSSS:More info

Metar Taf Metar & Taf Last 4 Metars F.Rules Stats Wind Profile Meteogram Temp Stats Airport Information Weather charts Add Link Nearby VenuesMetar ALERT Operation Metar Decoded Social comments